Kadena Air Base, Japan
Current Conditions -  °F | °C
As of 3:58 PM on Saturday 20 Dec 2014 (Local Time) from RODN Reporting Station
Broken Clouds Broken Clouds  
Wind Chill: 62°   Ceiling: 11000
Heat Index: 62°   Visibility: 10mi
Dew Point: 51°   Wind: 20mph
Humidity: 66%   Direction: 360°N
Pressure: 30.03"   Gusts: 26mph
Location:  26.37°N, 127.75°E
Report Text: RODN 200658Z AUTO 36017G23KT 10SM FEW035 SCT045 BKN110 17/11 A3003 RMK AO2 RAE0604DZB0604E0621 SLP176 P0000 T01690105 $
Loading
Personal Weather Stations






























Interactive Weather Map New forecast layout! Learn more

10-Day Weather Forecast

Advertisements
Track Severe Weather on mobile